Regal Star — ESCM — position and weather

sailwx.info

Track history (hours):
 
Tides and Currents Weather Stations Pressure Air Temp Water Temp Dewpoint Dewpoint Depression Visibility Wind Speed Wind Dir Waves Ship Positions

Regal Star

Last reported at 2016-Aug-25 04:34 UTC. Time now 2016-Aug-25 06:16 UTC.
Position N 59°23' E 023°45'.

Length 157 m; draft 6.5 m.

Type: Ship (hazmat cat B). MMSI: 276554000.

Date/timePositionNaut miles runAvg speedWind from/ knotsBaromVisibWave heightAir tempDewpointWater temp
2016-Aug-25 04:34N 59°23' E 023°45'1514.8
2016-Aug-25 03:34N 59°23' E 023°16'1515.0
2016-Aug-25 02:34N 59°23' E 022°47'1515.2
2016-Aug-25 01:34N 59°25' E 022°17'1615.8
2016-Aug-25 00:34N 59°29' E 021°47'1615.9
2016-Aug-24 23:33N 59°34' E 021°17'1716.0
2016-Aug-24 22:30N 59°39' E 020°45'10 0.4
2016-Aug-24 00:14N 59°31' E 020°57'1615.8
2016-Aug-23 23:12N 59°27' E 021°28'1015.7
2016-Aug-23 22:33N 59°25' E 021°47'2215.5
2016-Aug-23 21:09N 59°20' E 022°29'915.9
2016-Aug-23 20:34N 59°21' E 022°48'29 1.8
2016-Aug-23 04:33N 59°23' E 023°45'1313.3
2016-Aug-23 03:33N 59°23' E 023°19'1614.9
2016-Aug-23 02:30N 59°23' E 022°48'3314.9
2016-Aug-23 00:18N 59°30' E 021°45'1115.0
2016-Aug-22 23:33N 59°33' E 021°24'3014.8
2016-Aug-22 21:30N 59°43' E 020°27'97 3.1
2016-Aug-21 14:31N 59°23' E 023°34'1515.4
2016-Aug-21 13:33N 59°23' E 023°04'1815.9
2016-Aug-21 12:26N 59°24' E 022°29'1415.6
2016-Aug-21 11:33N 59°27' E 022°03'1615.8
2016-Aug-21 10:33N 59°32' E 021°34'1615.7
2016-Aug-21 09:34N 59°36' E 021°04'9 0.9
2016-Aug-20 23:33N 59°30' E 021°16'1515.1
2016-Aug-20 22:32N 59°27' E 021°46'2914.6
2016-Aug-20 20:33N 59°20' E 022°42'35 2.2
2016-Aug-20 04:32N 59°23' E 023°50'1514.4
2016-Aug-20 03:27N 59°23' E 023°19'1615.0
2016-Aug-20 02:23N 59°23' E 022°48'3015.8
2016-Aug-20 00:30N 59°29' E 021°50'1515.8
2016-Aug-19 23:33N 59°33' E 021°22'5 0.2
2016-Aug-18 23:23N 59°28' E 021°25'19 0.9
2016-Aug-18 01:09N 59°27' E 022°02'914.8
2016-Aug-18 00:34N 59°29' E 021°46'1514.8
2016-Aug-17 23:34N 59°33' E 021°18'3 0.1
2016-Aug-16 23:33N 59°36' E 021°20'1615.7
2016-Aug-16 22:33N 59°34' E 021°50'4815.5
2016-Aug-16 19:27N 59°27' E 023°25'6 0.4
2016-Aug-16 04:07N 59°26' E 023°36'814.7
2016-Aug-16 03:33N 59°29' E 023°21'3415.2
2016-Aug-16 01:20N 59°35' E 022°15'1215.5
2016-Aug-16 00:33N 59°35' E 021°51'1615.6
2016-Aug-15 23:33N 59°34' E 021°21'  
Track history (hours):
 
Tides and Currents Weather Stations Pressure Air Temp Water Temp Dewpoint Dewpoint Depression Visibility Wind Speed Wind Dir Waves Ship Positions

Regal Star

Last reported at 2016-Aug-25 04:34 UTC. Time now 2016-Aug-25 06:16 UTC.
Position N 59°23' E 023°45'.

Length 157 m; draft 6.5 m.

Type: Ship (hazmat cat B). MMSI: 276554000.

Date/timePositionNaut miles runAvg speedWind from/ knotsBaromVisibWave heightAir tempDewpointWater temp
2016-Aug-25 04:34N 59°23' E 023°45'1514.8
2016-Aug-25 03:34N 59°23' E 023°16'1515.0
2016-Aug-25 02:34N 59°23' E 022°47'1515.2
2016-Aug-25 01:34N 59°25' E 022°17'1615.8
2016-Aug-25 00:34N 59°29' E 021°47'1615.9
2016-Aug-24 23:33N 59°34' E 021°17'1716.0
2016-Aug-24 22:30N 59°39' E 020°45'10 0.4
2016-Aug-24 00:14N 59°31' E 020°57'1615.8
2016-Aug-23 23:12N 59°27' E 021°28'1015.7
2016-Aug-23 22:33N 59°25' E 021°47'2215.5
2016-Aug-23 21:09N 59°20' E 022°29'915.9
2016-Aug-23 20:34N 59°21' E 022°48'29 1.8
2016-Aug-23 04:33N 59°23' E 023°45'1313.3
2016-Aug-23 03:33N 59°23' E 023°19'1614.9
2016-Aug-23 02:30N 59°23' E 022°48'3314.9
2016-Aug-23 00:18N 59°30' E 021°45'1115.0
2016-Aug-22 23:33N 59°33' E 021°24'3014.8
2016-Aug-22 21:30N 59°43' E 020°27'97 3.1
2016-Aug-21 14:31N 59°23' E 023°34'1515.4
2016-Aug-21 13:33N 59°23' E 023°04'1815.9
2016-Aug-21 12:26N 59°24' E 022°29'1415.6
2016-Aug-21 11:33N 59°27' E 022°03'1615.8
2016-Aug-21 10:33N 59°32' E 021°34'1615.7
2016-Aug-21 09:34N 59°36' E 021°04'9 0.9
2016-Aug-20 23:33N 59°30' E 021°16'1515.1
2016-Aug-20 22:32N 59°27' E 021°46'2914.6
2016-Aug-20 20:33N 59°20' E 022°42'35 2.2
2016-Aug-20 04:32N 59°23' E 023°50'1514.4
2016-Aug-20 03:27N 59°23' E 023°19'1615.0
2016-Aug-20 02:23N 59°23' E 022°48'3015.8
2016-Aug-20 00:30N 59°29' E 021°50'1515.8
2016-Aug-19 23:33N 59°33' E 021°22'5 0.2
2016-Aug-18 23:23N 59°28' E 021°25'19 0.9
2016-Aug-18 01:09N 59°27' E 022°02'914.8
2016-Aug-18 00:34N 59°29' E 021°46'1514.8
2016-Aug-17 23:34N 59°33' E 021°18'3 0.1
2016-Aug-16 23:33N 59°36' E 021°20'1615.7
2016-Aug-16 22:33N 59°34' E 021°50'4815.5
2016-Aug-16 19:27N 59°27' E 023°25'6 0.4
2016-Aug-16 04:07N 59°26' E 023°36'814.7
2016-Aug-16 03:33N 59°29' E 023°21'3415.2
2016-Aug-16 01:20N 59°35' E 022°15'1215.5
2016-Aug-16 00:33N 59°35' E 021°51'1615.6
2016-Aug-15 23:33N 59°34' E 021°21'  

Dump ship's entire track history